Terminal Aerodrome Forecast
Issued by NWS

Home | Current Version | Previous Version | Text Only | Print | Product List | Glossary On
Versions: 1 2 3 4 5 6 7 8 9 10 11 12 13 14 15
787
FTUS46 KPDT 191725
TAFBDN
TAF
KBDN 191725Z 1918/2018 22008KT P6SM SCT045 BKN100
     FM200600 16003KT P6SM FEW040 OVC100
     FM201300 21010KT P6SM BKN050 OVC090=

USA.gov is the U.S. government's official web portal to all federal, state and local government web resources and services.